Time;durP1;ratioP1;P1;durP2;ratioP2;P2;SDS_P1;SDS_P2;PMS_P1;PMS_P2;Temp;Humidity;BMP_temperature;BMP_pressure;BME280_temperature;BME280_humidity;BME280_pressure;Samples;Min_cycle;Max_cycle;Signal;HPM_P1;HPM_P2
2022/09/06 00:02:22;;;;;;;8.57;3.80;;;20.80;99.90;;;;;;5097614;28;20044;-48
2022/09/06 00:04:48;;;;;;;8.60;4.60;;;20.70;99.90;;;;;;5098553;28;20078;-48
2022/09/06 00:07:14;;;;;;;13.00;4.28;;;20.70;99.90;;;;;;5098283;28;20044;-50
2022/09/06 00:09:39;;;;;;;9.27;4.47;;;20.70;99.90;;;;;;5098177;28;20395;-51
2022/09/06 00:12:05;;;;;;;6.57;4.10;;;20.70;99.90;;;;;;5098267;28;20056;-51
2022/09/06 00:14:31;;;;;;;8.57;4.40;;;20.60;99.90;;;;;;5097948;28;20040;-52
2022/09/06 00:16:57;;;;;;;6.38;4.13;;;20.60;99.90;;;;;;5089693;28;20045;-50
2022/09/06 00:19:22;;;;;;;8.18;4.43;;;20.50;99.90;;;;;;5077328;28;20107;-50
2022/09/06 00:21:48;;;;;;;8.13;4.53;;;20.60;99.90;;;;;;5078269;28;20078;-49
2022/09/06 00:24:13;;;;;;;7.30;4.15;;;20.50;99.90;;;;;;5076155;28;20104;-52
2022/09/06 00:26:39;;;;;;;7.30;4.05;;;20.50;99.90;;;;;;5077699;28;20045;-51
2022/09/06 00:29:05;;;;;;;9.25;4.35;;;20.50;99.90;;;;;;5077869;28;20063;-52
2022/09/06 00:31:31;;;;;;;8.65;4.32;;;20.50;99.90;;;;;;5077232;28;20465;-50
2022/09/06 00:33:57;;;;;;;7.20;4.43;;;20.50;99.90;;;;;;5077902;28;20060;-51
2022/09/06 00:36:22;;;;;;;7.75;4.43;;;20.40;99.90;;;;;;5077129;28;20040;-50
2022/09/06 00:38:48;;;;;;;8.52;4.82;;;20.30;99.90;;;;;;5091173;28;20047;-50
2022/09/06 00:41:15;;;;;;;8.88;4.35;;;20.10;99.90;;;;;;5097434;28;20032;-50
2022/09/06 00:43:41;;;;;;;8.07;4.63;;;20.10;99.90;;;;;;5098100;28;20123;-48
2022/09/06 00:46:10;;;;;;;8.35;4.57;;;20.20;99.90;;;;;;5097435;28;20080;-48
2022/09/06 00:48:37;;;;;;;7.88;4.50;;;20.20;99.90;;;;;;5097280;28;20036;-51
2022/09/06 00:51:07;;;;;;;7.85;4.30;;;20.20;99.90;;;;;;5097860;28;20040;-50
2022/09/06 00:53:33;;;;;;;10.57;4.90;;;20.20;99.90;;;;;;5097055;28;20048;-50
2022/09/06 00:55:59;;;;;;;8.27;5.10;;;20.20;99.90;;;;;;5098051;28;20043;-49
2022/09/06 00:58:26;;;;;;;8.13;4.88;;;20.20;99.90;;;;;;5098744;28;20075;-52
2022/09/06 01:00:52;;;;;;;7.05;4.38;;;20.30;99.90;;;;;;5101955;28;20062;-49
2022/09/06 01:03:18;;;;;;;9.10;4.47;;;20.30;99.90;;;;;;5100805;28;20071;-49
2022/09/06 01:06:10;;;;;;;7.88;4.80;;;20.20;99.90;;;;;;5101445;28;20109;-50
2022/09/06 01:09:00;;;;;;;7.82;4.22;;;20.20;99.90;;;;;;5102076;28;20048;-51
2022/09/06 01:12:01;;;;;;;8.23;4.82;;;20.20;99.90;;;;;;5101346;28;20080;-51
2022/09/06 01:15:07;;;;;;;7.68;4.20;;;20.20;99.90;;;;;;5101082;28;20058;-53
2022/09/06 01:18:11;;;;;;;9.32;5.07;;;20.20;99.90;;;;;;5087299;28;20059;-51
2022/09/06 01:20:54;;;;;;;7.65;4.90;;;20.20;99.90;;;;;;5081121;28;20119;-51
2022/09/06 01:23:20;;;;;;;8.07;4.57;;;20.10;99.90;;;;;;5080566;28;20044;-49
2022/09/06 01:25:45;;;;;;;7.22;4.47;;;20.00;99.90;;;;;;5081154;28;20053;-50
2022/09/06 01:28:23;;;;;;;9.30;4.68;;;20.10;99.90;;;;;;5080458;28;20140;-49
2022/09/06 01:31:14;;;;;;;8.27;4.60;;;20.10;99.90;;;;;;5081205;28;20075;-51
2022/09/06 01:34:08;;;;;;;7.10;4.55;;;20.10;99.90;;;;;;5080939;28;20044;-49
2022/09/06 01:36:46;;;;;;;7.63;4.75;;;20.00;99.90;;;;;;5080276;28;20049;-52
2022/09/06 01:39:21;;;;;;;8.15;5.00;;;20.00;99.90;;;;;;5097754;28;20044;-50
2022/09/06 01:41:46;;;;;;;8.90;5.65;;;20.00;99.90;;;;;;5101083;28;20100;-49
2022/09/06 01:44:12;;;;;;;7.82;4.93;;;20.00;99.90;;;;;;5100717;28;20032;-50
2022/09/06 01:46:58;;;;;;;7.28;5.22;;;20.00;99.90;;;;;;5100788;28;20058;-51
2022/09/06 01:49:53;;;;;;;7.85;5.07;;;19.90;99.90;;;;;;5100306;28;20055;-49
2022/09/06 01:52:21;;;;;;;9.23;4.90;;;20.00;99.90;;;;;;5101091;28;20044;-51
2022/09/06 01:54:53;;;;;;;8.13;5.30;;;19.90;99.90;;;;;;5100735;28;20092;-49
2022/09/06 01:57:52;;;;;;;9.77;5.00;;;20.00;99.90;;;;;;5100082;28;20051;-50
2022/09/06 02:00:21;;;;;;;8.40;5.25;;;19.80;99.90;;;;;;5101114;28;20048;-49
2022/09/06 02:03:13;;;;;;;7.93;5.10;;;19.80;99.90;;;;;;5100446;28;20099;-51
2022/09/06 02:05:46;;;;;;;8.27;4.85;;;19.80;99.90;;;;;;5100300;28;20558;-49
2022/09/06 02:08:39;;;;;;;7.80;5.28;;;19.80;99.90;;;;;;5098984;28;20135;-51
2022/09/06 02:11:07;;;;;;;8.63;5.25;;;19.80;99.90;;;;;;5099967;28;20044;-51
2022/09/06 02:13:42;;;;;;;9.20;5.32;;;19.80;99.90;;;;;;5100474;28;20036;-49
2022/09/06 02:16:12;;;;;;;6.90;4.72;;;19.70;99.90;;;;;;5098944;28;20099;-51
2022/09/06 02:19:02;;;;;;;10.73;5.50;;;19.70;99.90;;;;;;5079714;28;20111;-48
2022/09/06 02:21:36;;;;;;;9.88;5.22;;;19.70;99.90;;;;;;5079170;28;20041;-52
2022/09/06 02:24:08;;;;;;;7.75;5.60;;;19.60;99.90;;;;;;5079562;28;20041;-51
2022/09/06 02:26:40;;;;;;;8.27;5.07;;;19.60;99.90;;;;;;5080296;28;20041;-51
2022/09/06 02:29:06;;;;;;;;;;;19.60;99.90;;;;;;5080674;28;20134;-49
2022/09/06 02:31:53;;;;;;;7.22;4.90;;;19.60;99.90;;;;;;5079399;28;20016;-48
2022/09/06 02:34:19;;;;;;;8.73;5.13;;;19.60;99.90;;;;;;5079918;28;20330;-49
2022/09/06 02:36:46;;;;;;;10.93;5.30;;;19.60;99.90;;;;;;5079588;28;20047;-51
2022/09/06 02:39:12;;;;;;;9.57;4.80;;;19.60;99.90;;;;;;5096587;28;20044;-51
2022/09/06 02:41:40;;;;;;;7.00;4.93;;;19.60;99.90;;;;;;5099832;28;20073;-49
2022/09/06 02:44:06;;;;;;;8.13;5.00;;;19.60;99.90;;;;;;5099872;28;20048;-51
2022/09/06 02:46:31;;;;;;;8.27;5.07;;;19.50;99.90;;;;;;5100067;28;20508;-49
2022/09/06 02:48:57;;;;;;;9.95;6.30;;;19.50;99.90;;;;;;5097956;28;20456;-51
2022/09/06 02:51:22;;;;;;;11.07;5.47;;;19.50;99.90;;;;;;5100088;28;20047;-52
2022/09/06 02:53:49;;;;;;;10.35;5.07;;;19.50;99.90;;;;;;5099445;28;20051;-49
2022/09/06 02:56:14;;;;;;;8.80;5.45;;;19.50;99.90;;;;;;5099900;28;20119;-48
2022/09/06 02:58:40;;;;;;;10.25;5.68;;;19.40;99.90;;;;;;5099193;28;20044;-50
2022/09/06 03:01:06;;;;;;;8.43;5.40;;;19.40;99.90;;;;;;5099417;28;20036;-51
2022/09/06 03:03:31;;;;;;;8.63;5.38;;;19.40;99.90;;;;;;5099372;28;20075;-50
2022/09/06 03:05:57;;;;;;;11.23;6.07;;;19.40;99.90;;;;;;5097545;28;20108;-52
2022/09/06 03:08:32;;;;;;;8.93;5.88;;;19.30;99.90;;;;;;5099574;28;20043;-49
2022/09/06 03:10:58;;;;;;;8.57;6.15;;;19.30;99.90;;;;;;5098590;28;20098;-48
2022/09/06 03:13:24;;;;;;;8.57;5.93;;;19.30;99.90;;;;;;5099590;28;20055;-51
2022/09/06 03:15:52;;;;;;;8.82;5.10;;;19.30;99.90;;;;;;5099124;28;20467;-50
2022/09/06 03:18:17;;;;;;;11.25;6.10;;;19.30;99.90;;;;;;5079319;28;20040;-49
2022/09/06 03:20:43;;;;;;;9.07;5.85;;;19.20;99.90;;;;;;5077992;28;20127;-49
2022/09/06 03:23:08;;;;;;;8.75;5.55;;;19.20;99.90;;;;;;5077246;28;20480;-52
2022/09/06 03:25:34;;;;;;;10.18;5.72;;;19.20;99.90;;;;;;5078970;28;20063;-50
2022/09/06 03:28:00;;;;;;;8.25;5.57;;;19.20;99.90;;;;;;5078432;28;20070;-49
2022/09/06 03:30:26;;;;;;;10.25;5.80;;;19.20;99.90;;;;;;5079311;28;20400;-49
2022/09/06 03:32:52;;;;;;;9.20;5.65;;;19.20;99.90;;;;;;5078344;28;20048;-50
2022/09/06 03:35:18;;;;;;;7.97;5.93;;;19.20;99.90;;;;;;5078632;28;20045;-49
2022/09/06 03:37:44;;;;;;;7.72;5.88;;;19.20;99.90;;;;;;5083539;28;20589;-49
2022/09/06 03:40:10;;;;;;;9.05;5.57;;;19.20;99.90;;;;;;5098390;28;20044;-49
2022/09/06 03:42:36;;;;;;;7.43;5.32;;;19.20;99.90;;;;;;5099007;28;20503;-51
2022/09/06 03:45:01;;;;;;;8.88;5.70;;;19.10;99.90;;;;;;5098360;28;20048;-50
2022/09/06 03:47:27;;;;;;;9.50;5.80;;;19.10;99.90;;;;;;5099024;28;20098;-48
2022/09/06 03:49:53;;;;;;;7.47;5.90;;;19.10;99.90;;;;;;5098606;28;20090;-51
2022/09/06 03:52:18;;;;;;;8.85;6.00;;;19.10;99.90;;;;;;5098893;28;20376;-49
2022/09/06 03:54:44;;;;;;;8.82;5.60;;;19.10;99.90;;;;;;5099058;28;20382;-51
2022/09/06 03:57:09;;;;;;;9.60;6.05;;;19.10;99.90;;;;;;5098358;28;20153;-51
2022/09/06 03:59:35;;;;;;;8.70;5.20;;;19.10;99.90;;;;;;5098775;28;20455;-51
2022/09/06 04:02:01;;;;;;;8.85;6.00;;;19.10;99.90;;;;;;5097880;28;20423;-51
2022/09/06 04:04:27;;;;;;;7.97;5.60;;;19.10;99.90;;;;;;5098979;28;20036;-51
2022/09/06 04:06:53;;;;;;;9.30;5.80;;;19.00;99.90;;;;;;5098161;28;20051;-49
2022/09/06 04:09:19;;;;;;;8.85;6.30;;;19.00;99.90;;;;;;5098496;28;20071;-51
2022/09/06 04:11:44;;;;;;;8.40;6.20;;;19.00;99.90;;;;;;5098530;28;20106;-48
2022/09/06 04:14:10;;;;;;;8.57;6.20;;;19.00;99.90;;;;;;5098208;28;20488;-49
2022/09/06 04:16:36;;;;;;;8.88;6.22;;;19.00;99.90;;;;;;5092448;28;20043;-49
2022/09/06 04:19:03;;;;;;;9.25;5.70;;;19.00;99.90;;;;;;5077561;28;20037;-51
2022/09/06 04:21:29;;;;;;;8.00;6.03;;;19.00;99.90;;;;;;5078486;28;20098;-52
2022/09/06 04:23:55;;;;;;;8.60;5.95;;;19.00;99.90;;;;;;5077575;28;20040;-51
2022/09/06 04:26:20;;;;;;;9.10;6.63;;;18.90;99.90;;;;;;5078338;28;20043;-50
2022/09/06 04:28:46;;;;;;;9.13;6.30;;;19.00;99.90;;;;;;5078079;28;20100;-51
2022/09/06 04:31:12;;;;;;;10.07;6.60;;;19.00;99.90;;;;;;5077611;28;20091;-50
2022/09/06 04:33:38;;;;;;;9.55;7.03;;;19.00;99.90;;;;;;5077976;28;20044;-50
2022/09/06 04:36:07;;;;;;;8.52;6.32;;;19.00;99.90;;;;;;5077396;28;20056;-51
2022/09/06 04:38:38;;;;;;;10.35;6.90;;;19.00;99.90;;;;;;5089691;28;20050;-51
2022/09/06 04:41:05;;;;;;;9.93;6.45;;;19.00;99.90;;;;;;5097463;28;20048;-55
2022/09/06 04:43:31;;;;;;;8.85;6.88;;;19.00;99.90;;;;;;5098075;28;20089;-49
2022/09/06 04:46:05;;;;;;;10.25;6.78;;;19.00;99.90;;;;;;5098186;28;20047;-50
2022/09/06 04:48:31;;;;;;;9.10;6.82;;;19.00;99.90;;;;;;5096259;28;20040;-51
2022/09/06 04:50:57;;;;;;;10.15;7.13;;;19.00;99.90;;;;;;5098195;28;20036;-48
2022/09/06 04:53:23;;;;;;;11.60;7.00;;;19.00;99.90;;;;;;5097193;28;20101;-48
2022/09/06 04:55:48;;;;;;;10.02;7.28;;;19.00;99.90;;;;;;5097040;28;20052;-50
2022/09/06 04:58:14;;;;;;;9.25;7.57;;;19.00;99.90;;;;;;5097254;28;20095;-47
2022/09/06 05:00:43;;;;;;;10.15;8.27;;;19.00;99.90;;;;;;5098067;28;20041;-50
2022/09/06 05:03:09;;;;;;;12.25;8.27;;;19.00;99.90;;;;;;5098012;28;20040;-51
2022/09/06 05:05:34;;;;;;;10.35;8.05;;;19.00;99.90;;;;;;5097239;28;20050;-48
2022/09/06 05:08:00;;;;;;;11.45;7.57;;;19.00;99.90;;;;;;5097871;28;20044;-51
2022/09/06 05:10:26;;;;;;;11.90;8.68;;;19.00;99.90;;;;;;5097043;28;20036;-51
2022/09/06 05:12:53;;;;;;;12.63;9.10;;;18.90;99.90;;;;;;5097990;28;20044;-50
2022/09/06 05:15:21;;;;;;;11.40;8.30;;;18.90;99.90;;;;;;5097316;28;20040;-50
2022/09/06 05:17:47;;;;;;;13.50;8.43;;;18.90;99.90;;;;;;5082492;28;20045;-51
2022/09/06 05:20:12;;;;;;;12.40;9.13;;;18.70;99.90;;;;;;5077646;28;20068;-50
2022/09/06 05:22:39;;;;;;;13.45;8.55;;;18.60;99.90;;;;;;5077342;28;20051;-52
2022/09/06 05:25:06;;;;;;;12.98;9.07;;;18.70;99.90;;;;;;5077607;28;20041;-51
2022/09/06 05:27:32;;;;;;;11.65;8.55;;;18.80;99.90;;;;;;5076894;28;20048;-49
2022/09/06 05:29:57;;;;;;;10.43;9.18;;;18.80;99.90;;;;;;5077584;28;20048;-52
2022/09/06 05:32:23;;;;;;;13.00;9.75;;;18.80;99.90;;;;;;5077038;28;20309;-53
2022/09/06 05:34:49;;;;;;;11.25;9.20;;;18.80;99.90;;;;;;5077764;28;20037;-50
2022/09/06 05:37:14;;;;;;;12.13;9.10;;;18.80;99.90;;;;;;5077649;28;20448;-49
2022/09/06 05:39:40;;;;;;;11.23;8.88;;;18.90;99.90;;;;;;5096827;28;20047;-53
2022/09/06 05:42:06;;;;;;;11.20;9.50;;;18.80;99.90;;;;;;5097501;28;20132;-50
2022/09/06 05:44:36;;;;;;;13.05;9.55;;;18.80;99.90;;;;;;5098786;28;20682;-51
2022/09/06 05:47:02;;;;;;;13.38;9.80;;;18.80;99.90;;;;;;5101236;28;20477;-51
2022/09/06 05:49:29;;;;;;;12.40;10.30;;;18.80;99.90;;;;;;5100621;28;20050;-52
2022/09/06 05:51:55;;;;;;;12.05;9.32;;;18.80;99.90;;;;;;5101360;28;20121;-49
2022/09/06 05:54:20;;;;;;;11.88;10.07;;;18.80;99.90;;;;;;5100857;28;20048;-51
2022/09/06 05:56:46;;;;;;;15.10;9.95;;;18.80;99.90;;;;;;5100920;28;20044;-52
2022/09/06 05:59:12;;;;;;;13.80;10.48;;;18.80;99.90;;;;;;5100870;28;20049;-50
2022/09/06 06:01:52;;;;;;;12.60;10.27;;;18.80;99.90;;;;;;5100434;28;20032;-50
2022/09/06 06:04:19;;;;;;;13.38;10.27;;;18.80;99.90;;;;;;5101053;28;20042;-52
2022/09/06 06:06:45;;;;;;;14.20;10.25;;;18.70;99.90;;;;;;5100198;28;20048;-50
2022/09/06 06:09:12;;;;;;;13.05;10.02;;;18.70;99.90;;;;;;5100678;28;20048;-51
2022/09/06 06:11:38;;;;;;;13.63;10.95;;;18.70;99.90;;;;;;5100691;28;20723;-52
2022/09/06 06:14:04;;;;;;;13.32;11.30;;;18.70;99.90;;;;;;5098949;28;20043;-51
2022/09/06 06:16:30;;;;;;;13.77;10.80;;;18.60;99.90;;;;;;5096085;28;20068;-52
2022/09/06 06:18:56;;;;;;;12.80;10.93;;;18.70;99.90;;;;;;5061659;28;20040;-52
2022/09/06 06:21:30;;;;;;;14.55;10.70;;;18.70;99.90;;;;;;5080316;28;20063;-49
2022/09/06 06:24:00;;;;;;;13.93;10.52;;;18.70;99.90;;;;;;5079782;28;20052;-52
2022/09/06 06:26:28;;;;;;;13.60;10.35;;;18.70;99.90;;;;;;5080443;28;20075;-49
2022/09/06 06:28:54;;;;;;;12.18;10.35;;;18.70;99.90;;;;;;5080235;28;20044;-50
2022/09/06 06:31:21;;;;;;;15.50;10.00;;;18.70;99.90;;;;;;5079755;28;20044;-51
2022/09/06 06:33:47;;;;;;;14.10;10.63;;;18.70;99.90;;;;;;5080161;28;20041;-50
2022/09/06 06:36:13;;;;;;;15.48;10.35;;;18.70;99.90;;;;;;5077770;28;20052;-51
2022/09/06 06:38:40;;;;;;;13.23;11.23;;;18.70;99.90;;;;;;5092333;28;20040;-50
2022/09/06 06:41:08;;;;;;;12.60;11.15;;;18.80;99.90;;;;;;5099884;28;20069;-49
2022/09/06 06:43:37;;;;;;;12.40;10.70;;;18.70;99.90;;;;;;5100297;28;20051;-49
2022/09/06 06:46:10;;;;;;;13.70;11.20;;;18.80;99.90;;;;;;5100013;28;20044;-51
2022/09/06 06:48:39;;;;;;;13.98;11.43;;;18.80;99.90;;;;;;5098102;28;20083;-52
2022/09/06 06:51:06;;;;;;;15.57;11.63;;;18.80;99.90;;;;;;5099964;28;20051;-48
2022/09/06 06:53:32;;;;;;;15.13;11.38;;;18.80;99.90;;;;;;5099278;28;20045;-51
2022/09/06 06:55:58;;;;;;;15.85;11.95;;;18.90;99.90;;;;;;5099133;28;20075;-52
2022/09/06 06:58:24;;;;;;;15.55;12.40;;;19.00;99.90;;;;;;5099321;28;20071;-52
2022/09/06 07:00:49;;;;;;;14.73;11.52;;;19.00;99.90;;;;;;5099996;28;20126;-49
2022/09/06 07:03:15;;;;;;;14.73;12.10;;;19.20;99.90;;;;;;5099381;28;20040;-52
2022/09/06 07:05:45;;;;;;;15.75;12.70;;;19.20;99.90;;;;;;5099287;28;20144;-51
2022/09/06 07:08:11;;;;;;;15.43;12.02;;;19.20;99.90;;;;;;5099620;28;20075;-51
2022/09/06 07:10:37;;;;;;;15.43;12.35;;;19.30;99.90;;;;;;5098657;28;20051;-51
2022/09/06 07:13:03;;;;;;;15.52;12.32;;;19.30;99.90;;;;;;5098565;28;20048;-50
2022/09/06 07:15:29;;;;;;;13.55;12.00;;;19.30;99.90;;;;;;5099208;28;20040;-48
2022/09/06 07:17:55;;;;;;;14.15;11.90;;;19.30;99.90;;;;;;5081917;28;20052;-48
2022/09/06 07:20:22;;;;;;;16.27;12.05;;;19.40;99.90;;;;;;5079229;28;20032;-50
2022/09/06 07:22:58;;;;;;;16.67;12.18;;;19.40;99.90;;;;;;5078733;28;20091;-51
2022/09/06 07:25:24;;;;;;;13.10;11.55;;;19.50;99.90;;;;;;5077716;28;20047;-49
2022/09/06 07:28:00;;;;;;;14.05;12.25;;;19.50;99.90;;;;;;5078327;28;20428;-50
2022/09/06 07:30:26;;;;;;;15.20;11.90;;;19.50;99.90;;;;;;5079104;28;20056;-50
2022/09/06 07:32:51;;;;;;;15.65;12.88;;;19.50;99.90;;;;;;5078946;28;20037;-49
2022/09/06 07:35:19;;;;;;;13.88;12.48;;;19.50;99.90;;;;;;5078681;28;20567;-51
2022/09/06 07:37:55;;;;;;;15.52;13.98;;;19.50;99.90;;;;;;5083368;28;20087;-50
2022/09/06 07:40:21;;;;;;;17.33;13.57;;;19.50;99.90;;;;;;5098046;28;20111;-52
2022/09/06 07:42:46;;;;;;;16.55;13.45;;;19.60;99.90;;;;;;5098792;28;20048;-51
2022/09/06 07:45:12;;;;;;;15.30;13.05;;;19.70;99.90;;;;;;5098268;28;20040;-51
2022/09/06 07:47:38;;;;;;;15.07;12.93;;;19.90;99.90;;;;;;5097877;28;20056;-50
2022/09/06 07:50:04;;;;;;;16.95;13.13;;;20.00;99.90;;;;;;5098840;28;20075;-50
2022/09/06 07:52:30;;;;;;;16.00;13.85;;;20.20;99.90;;;;;;5098390;28;20558;-51
2022/09/06 07:54:55;;;;;;;17.00;14.32;;;20.40;99.90;;;;;;5099019;28;20039;-51
2022/09/06 07:57:22;;;;;;;17.35;13.80;;;20.40;99.90;;;;;;5097901;28;20147;-51
2022/09/06 07:59:48;;;;;;;15.27;13.52;;;20.60;99.90;;;;;;5098913;28;20048;-51
2022/09/06 08:02:16;;;;;;;14.82;13.00;;;20.70;99.90;;;;;;5098062;28;20066;-49
2022/09/06 08:04:42;;;;;;;15.30;13.23;;;20.70;99.90;;;;;;5097707;28;20052;-51
2022/09/06 08:07:08;;;;;;;16.92;12.57;;;20.70;99.90;;;;;;5096487;28;20527;-50
2022/09/06 08:09:34;;;;;;;15.68;13.50;;;20.90;99.90;;;;;;5098230;28;20096;-49
2022/09/06 08:12:05;;;;;;;17.40;13.48;;;20.90;99.90;;;;;;5098333;28;20728;-50
2022/09/06 08:14:32;;;;;;;16.30;12.63;;;20.90;99.90;;;;;;5098046;28;20130;-48
2022/09/06 08:16:57;;;;;;;18.02;13.02;;;20.80;99.90;;;;;;5090011;28;20059;-50
2022/09/06 08:19:23;;;;;;;16.33;13.57;;;20.90;99.90;;;;;;5077598;28;20030;-49
2022/09/06 08:21:49;;;;;;;14.35;12.85;;;21.10;99.90;;;;;;5078316;28;20052;-51
2022/09/06 08:24:15;;;;;;;18.92;13.25;;;21.00;99.90;;;;;;5078085;28;20048;-51
2022/09/06 08:26:43;;;;;;;16.45;13.30;;;21.10;99.90;;;;;;5077879;28;20098;-52
2022/09/06 08:29:10;;;;;;;16.58;13.85;;;21.10;99.90;;;;;;5078182;28;20047;-52
2022/09/06 08:31:39;;;;;;;15.68;12.90;;;21.20;99.90;;;;;;5077499;28;20143;-50
2022/09/06 08:34:05;;;;;;;16.27;13.25;;;21.30;99.90;;;;;;5078224;28;20036;-50
2022/09/06 08:36:32;;;;;;;15.88;13.57;;;21.40;99.90;;;;;;5077163;28;20040;-48
2022/09/06 08:38:59;;;;;;;14.50;12.95;;;21.50;99.90;;;;;;5092493;28;20047;-48
2022/09/06 08:41:52;;;;;;;15.95;12.93;;;21.60;99.90;;;;;;5097972;28;20047;-49
2022/09/06 08:44:39;;;;;;;17.60;13.45;;;21.70;99.90;;;;;;5096195;28;20063;-52
2022/09/06 08:47:13;;;;;;;16.10;13.27;;;21.80;99.90;;;;;;5098002;28;20453;-52
2022/09/06 08:49:46;;;;;;;15.32;12.80;;;21.80;99.90;;;;;;5097731;28;20040;-50
2022/09/06 08:52:46;;;;;;;17.05;12.88;;;21.80;99.90;;;;;;5098114;28;20052;-52
2022/09/06 08:55:23;;;;;;;13.82;12.27;;;21.90;99.90;;;;;;5097818;28;20052;-49
2022/09/06 08:57:55;;;;;;;17.13;13.80;;;22.10;99.90;;;;;;5096964;28;20089;-48
2022/09/06 09:00:21;;;;;;;15.70;12.32;;;22.10;99.90;;;;;;5098006;28;20055;-51
2022/09/06 09:03:10;;;;;;;16.88;12.57;;;22.20;99.90;;;;;;5097661;28;20051;-49
2022/09/06 09:05:38;;;;;;;17.58;13.98;;;22.30;99.90;;;;;;5097497;28;20040;-50
2022/09/06 09:08:25;;;;;;;16.20;12.52;;;22.40;99.90;;;;;;5097600;28;20516;-50
2022/09/06 09:10:58;;;;;;;15.88;11.75;;;22.50;99.90;;;;;;5097091;28;20040;-51
2022/09/06 09:13:37;;;;;;;14.60;10.45;;;22.60;99.90;;;;;;5098054;28;20048;-48
2022/09/06 09:16:04;;;;;;;13.93;10.93;;;22.70;99.90;;;;;;5097075;28;20043;-51
2022/09/06 09:18:35;;;;;;;15.13;11.98;;;22.90;99.90;;;;;;5077115;28;20043;-49
2022/09/06 09:21:02;;;;;;;13.93;11.40;;;22.90;99.90;;;;;;5081528;28;20052;-51
2022/09/06 09:23:29;;;;;;;15.23;11.30;;;22.90;99.90;;;;;;5080891;28;20072;-52
2022/09/06 09:26:01;;;;;;;14.38;11.35;;;22.90;99.90;;;;;;5081666;28;20049;-51
2022/09/06 09:28:26;;;;;;;13.50;10.70;;;22.90;99.90;;;;;;5081403;28;20047;-51
2022/09/06 09:30:54;;;;;;;12.40;10.75;;;23.10;99.90;;;;;;5081078;28;20052;-52
2022/09/06 09:33:27;;;;;;;16.05;11.45;;;23.10;99.90;;;;;;5081124;28;20147;-51
2022/09/06 09:35:55;;;;;;;12.35;9.90;;;23.20;99.90;;;;;;5080572;28;20120;-52
2022/09/06 09:38:39;;;;;;;13.18;11.75;;;23.20;99.90;;;;;;5089551;28;20044;-52
2022/09/06 09:41:06;;;;;;;15.23;10.65;;;23.20;99.90;;;;;;5100942;28;20048;-49
2022/09/06 09:43:38;;;;;;;13.18;10.82;;;23.40;99.90;;;;;;5100167;28;20126;-52
2022/09/06 09:46:10;;;;;;;12.02;10.73;;;23.40;99.90;;;;;;5099802;28;20060;-52
2022/09/06 09:48:36;;;;;;;;;;;23.30;99.90;;;;;;5101237;28;20036;-52
2022/09/06 09:51:22;;;;;;;11.25;8.95;;;23.30;99.90;;;;;;5101236;28;19989;-52
2022/09/06 09:54:00;;;;;;;13.27;9.13;;;23.50;99.90;;;;;;5100578;28;20040;-49
2022/09/06 09:56:37;;;;;;;14.27;9.68;;;23.60;99.90;;;;;;5101099;28;20048;-50
2022/09/06 09:59:16;;;;;;;12.23;9.20;;;23.70;99.90;;;;;;5100687;28;20043;-52
2022/09/06 10:01:41;;;;;;;12.13;9.10;;;23.70;99.90;;;;;;5098882;28;20040;-52
2022/09/06 10:04:11;;;;;;;13.10;10.02;;;23.80;99.90;;;;;;5101159;28;20047;-50
2022/09/06 10:06:37;;;;;;;15.90;9.95;;;23.80;99.90;;;;;;5099883;28;20069;-51
2022/09/06 10:09:21;;;;;;;13.07;10.15;;;24.00;99.90;;;;;;5099434;28;20040;-52
2022/09/06 10:11:57;;;;;;;14.48;9.73;;;24.00;99.90;;;;;;5100823;28;20048;-52
2022/09/06 10:14:27;;;;;;;14.50;9.65;;;24.10;99.90;;;;;;5100156;28;20055;-52
2022/09/06 10:16:54;;;;;;;12.25;8.95;;;24.10;99.90;;;;;;5092843;28;20055;-51
2022/09/06 10:19:38;;;;;;;10.43;8.13;;;24.30;99.90;;;;;;5079552;28;20040;-50
2022/09/06 10:22:18;;;;;;;11.60;8.35;;;24.30;99.90;;;;;;5080311;28;20098;-52
2022/09/06 10:24:47;;;;;;;14.33;9.40;;;24.40;99.90;;;;;;5080345;28;20044;-52
2022/09/06 10:27:17;;;;;;;13.73;10.27;;;24.40;99.90;;;;;;5079497;28;20051;-52
2022/09/06 10:29:54;;;;;;;13.88;10.02;;;24.30;99.90;;;;;;5079944;28;20348;-49
2022/09/06 10:32:50;;;;;;;11.95;9.85;;;24.30;99.90;;;;;;5079734;28;20469;-52
2022/09/06 10:35:18;;;;;;;14.75;10.90;;;24.40;99.90;;;;;;5079950;28;20044;-52
2022/09/06 10:38:04;;;;;;;12.93;10.13;;;24.40;99.90;;;;;;5084562;28;20054;-53
2022/09/06 10:40:58;;;;;;;13.63;10.85;;;24.40;99.90;;;;;;5099033;28;20052;-52
2022/09/06 10:43:30;;;;;;;14.18;10.80;;;24.50;99.90;;;;;;5100297;28;20085;-52
2022/09/06 10:45:58;;;;;;;14.98;10.93;;;24.50;99.90;;;;;;5100245;28;20032;-52
2022/09/06 10:48:37;;;;;;;12.50;10.48;;;24.50;99.90;;;;;;5099667;28;20388;-53
2022/09/06 10:51:32;;;;;;;12.25;10.68;;;24.50;99.90;;;;;;5100081;28;20052;-49
2022/09/06 10:54:09;;;;;;;11.75;9.63;;;24.50;99.90;;;;;;5099666;28;20055;-51
2022/09/06 10:56:53;;;;;;;16.40;10.02;;;24.60;99.90;;;;;;5098435;28;20044;-50
2022/09/06 10:59:30;;;;;;;10.88;9.27;;;24.60;99.90;;;;;;5099602;28;20060;-52
2022/09/06 11:02:29;;;;;;;11.48;9.05;;;24.70;99.90;;;;;;5099030;28;20482;-53
2022/09/06 11:05:00;;;;;;;12.68;9.35;;;24.80;99.90;;;;;;5099662;28;20040;-52
2022/09/06 11:07:33;;;;;;;12.73;10.43;;;24.80;99.90;;;;;;5099680;28;20056;-52
2022/09/06 11:10:17;;;;;;;12.88;9.52;;;24.70;99.90;;;;;;5098892;28;20475;-53
2022/09/06 11:13:09;;;;;;;14.88;10.27;;;24.80;99.90;;;;;;5100052;28;20048;-50
2022/09/06 11:15:58;;;;;;;13.48;9.52;;;24.80;99.90;;;;;;5098959;28;20083;-48
2022/09/06 11:18:41;;;;;;;14.65;10.82;;;25.00;99.90;;;;;;5078773;28;20092;-50
2022/09/06 11:21:28;;;;;;;11.63;9.32;;;25.00;99.90;;;;;;5079230;28;20047;-52
2022/09/06 11:24:12;;;;;;;11.88;9.15;;;25.10;99.90;;;;;;5078815;28;20058;-51
2022/09/06 11:27:18;;;;;;;12.60;9.57;;;25.10;99.90;;;;;;5078698;28;20048;-51
2022/09/06 11:29:47;;;;;;;11.85;9.35;;;25.10;99.90;;;;;;5079123;28;20078;-52
2022/09/06 11:32:34;;;;;;;16.77;11.18;;;25.10;99.90;;;;;;5078327;28;20072;-51
2022/09/06 11:35:05;;;;;;;15.07;10.05;;;25.10;99.90;;;;;;5078882;28;20096;-50
2022/09/06 11:37:35;;;;;;;16.05;11.65;;;25.20;99.90;;;;;;5081675;28;20104;-49
2022/09/06 11:40:12;;;;;;;13.25;9.98;;;24.90;99.90;;;;;;5098471;28;20113;-50
2022/09/06 11:42:44;;;;;;;12.65;9.32;;;25.00;99.90;;;;;;5098661;28;20056;-51
2022/09/06 11:45:09;;;;;;;;;;;25.00;99.90;;;;;;5098816;28;20051;-50
2022/09/06 11:47:40;;;;;;;11.93;9.95;;;24.90;99.90;;;;;;5099002;28;19920;-49
2022/09/06 11:50:23;;;;;;;13.48;10.80;;;25.00;99.90;;;;;;5099043;28;20047;-49
2022/09/06 11:52:54;;;;;;;15.05;9.88;;;25.10;99.90;;;;;;5098130;28;20051;-50
2022/09/06 11:55:58;;;;;;;14.00;10.40;;;25.20;99.90;;;;;;5098836;28;20063;-48
2022/09/06 11:58:33;;;;;;;10.98;9.55;;;25.40;99.90;;;;;;5098314;28;20063;-51
2022/09/06 12:01:28;;;;;;;13.82;10.55;;;25.40;99.90;;;;;;5098157;28;20059;-51
2022/09/06 12:03:57;;;;;;;12.50;9.40;;;25.50;99.90;;;;;;5093651;28;20056;-51
2022/09/06 12:06:34;;;;;;;13.45;9.52;;;25.60;99.90;;;;;;5096635;28;20511;-50
2022/09/06 12:09:00;;;;;;;13.52;9.40;;;25.60;99.90;;;;;;5098724;28;20555;-50
2022/09/06 12:11:42;;;;;;;11.57;7.88;;;25.60;99.90;;;;;;5098210;28;20036;-50
2022/09/06 12:14:30;;;;;;;10.75;8.55;;;25.80;99.90;;;;;;5098298;28;20036;-52
2022/09/06 12:17:03;;;;;;;13.60;8.70;;;25.80;99.90;;;;;;5090421;28;20048;-51
2022/09/06 12:19:48;;;;;;;14.00;9.00;;;25.90;99.90;;;;;;5076411;28;20044;-51
2022/09/06 12:22:32;;;;;;;11.68;8.20;;;26.00;99.90;;;;;;5078037;28;20044;-51
2022/09/06 12:25:36;;;;;;;9.43;6.68;;;26.00;99.90;;;;;;5078002;28;20519;-52
2022/09/06 12:28:04;;;;;;;11.63;6.90;;;26.30;99.60;;;;;;5034946;28;20073;-50
2022/09/06 12:30:37;;;;;;;10.50;7.28;;;26.40;99.90;;;;;;5035609;28;20061;-53
2022/09/06 12:33:34;;;;;;;11.05;6.93;;;26.60;99.80;;;;;;5058130;28;20048;-51
2022/09/06 12:36:22;;;;;;;11.07;6.15;;;26.50;99.10;;;;;;5077537;28;20040;-51
2022/09/06 12:39:00;;;;;;;12.18;6.38;;;26.60;99.40;;;;;;5091414;28;20105;-52
2022/09/06 12:41:29;;;;;;;10.60;6.40;;;26.50;99.20;;;;;;5098178;28;20032;-53
2022/09/06 12:43:58;;;;;;;8.07;5.70;;;26.60;99.40;;;;;;5097462;28;20047;-50
2022/09/06 12:46:25;;;;;;;10.20;5.47;;;26.80;98.90;;;;;;5098071;28;20048;-51
2022/09/06 12:49:08;;;;;;;8.60;6.07;;;26.60;98.80;;;;;;5097645;28;20089;-52
2022/09/06 12:51:36;;;;;;;9.68;6.28;;;26.60;98.80;;;;;;5098330;28;20051;-52
2022/09/06 12:54:17;;;;;;;9.32;5.72;;;26.60;98.40;;;;;;5100607;28;20047;-50
2022/09/06 12:56:43;;;;;;;;;;;26.80;98.50;;;;;;5102385;28;20044;-50
2022/09/06 12:59:13;;;;;;;9.77;6.30;;;26.70;98.30;;;;;;5102104;28;19920;-52
2022/09/06 13:01:43;;;;;;;12.55;6.07;;;26.80;98.80;;;;;;5101435;28;20048;-53